sensor_id;sensor_type;location;lat;lon;timestamp;pressure;altitude;pressure_sealevel;temperature;humidity
37848;BME280;23688;33.130;-117.188;2023-07-29T00:01:37;99245.00;;;26.57;68.16
37848;BME280;23688;33.130;-117.188;2023-07-29T00:04:05;99244.44;;;26.44;68.96
37848;BME280;23688;33.130;-117.188;2023-07-29T00:06:32;99230.53;;;26.00;70.64
37848;BME280;23688;33.130;-117.188;2023-07-29T00:08:58;99230.72;;;25.93;71.77
37848;BME280;23688;33.130;-117.188;2023-07-29T00:11:27;99242.66;;;26.12;70.76
37848;BME280;23688;33.130;-117.188;2023-07-29T00:13:54;99247.63;;;26.24;70.83
37848;BME280;23688;33.130;-117.188;2023-07-29T00:16:20;99223.69;;;26.24;70.55
37848;BME280;23688;33.130;-117.188;2023-07-29T00:18:50;99235.34;;;26.19;70.18
37848;BME280;23688;33.130;-117.188;2023-07-29T00:21:16;99242.97;;;26.00;72.05
37848;BME280;23688;33.130;-117.188;2023-07-29T00:23:42;99237.22;;;26.15;71.12
37848;BME280;23688;33.130;-117.188;2023-07-29T00:26:09;99233.47;;;26.24;72.48
37848;BME280;23688;33.130;-117.188;2023-07-29T00:28:35;99235.78;;;26.69;70.04
37848;BME280;23688;33.130;-117.188;2023-07-29T00:31:02;99230.69;;;26.61;69.04
37848;BME280;23688;33.130;-117.188;2023-07-29T00:33:28;99233.13;;;26.36;69.73
37848;BME280;23688;33.130;-117.188;2023-07-29T00:35:54;99216.78;;;26.17;70.11
37848;BME280;23688;33.130;-117.188;2023-07-29T00:38:23;99230.28;;;26.10;70.79
37848;BME280;23688;33.130;-117.188;2023-07-29T00:40:49;99216.16;;;26.08;71.17
37848;BME280;23688;33.130;-117.188;2023-07-29T00:43:16;99231.59;;;26.27;70.96
37848;BME280;23688;33.130;-117.188;2023-07-29T00:45:43;99234.63;;;26.46;70.34
37848;BME280;23688;33.130;-117.188;2023-07-29T00:48:10;99234.06;;;26.68;68.06
37848;BME280;23688;33.130;-117.188;2023-07-29T00:50:37;99224.31;;;26.67;68.93
37848;BME280;23688;33.130;-117.188;2023-07-29T00:53:03;99217.88;;;26.74;67.43
37848;BME280;23688;33.130;-117.188;2023-07-29T00:55:29;99208.66;;;26.86;67.37
37848;BME280;23688;33.130;-117.188;2023-07-29T00:57:56;99213.84;;;26.90;67.06
37848;BME280;23688;33.130;-117.188;2023-07-29T01:00:23;99215.44;;;26.98;67.74
37848;BME280;23688;33.130;-117.188;2023-07-29T01:02:50;99214.31;;;27.05;67.26
37848;BME280;23688;33.130;-117.188;2023-07-29T01:05:18;99203.13;;;26.92;65.97
37848;BME280;23688;33.130;-117.188;2023-07-29T01:07:55;99197.03;;;26.88;66.29
37848;BME280;23688;33.130;-117.188;2023-07-29T01:13:19;99215.16;;;26.44;68.81
37848;BME280;23688;33.130;-117.188;2023-07-29T01:15:55;99217.03;;;26.08;69.89
37848;BME280;23688;33.130;-117.188;2023-07-29T01:18:32;99200.28;;;25.67;72.01
37848;BME280;23688;33.130;-117.188;2023-07-29T01:21:07;99230.56;;;25.61;73.36
37848;BME280;23688;33.130;-117.188;2023-07-29T01:23:35;99223.56;;;25.57;73.46
37848;BME280;23688;33.130;-117.188;2023-07-29T01:26:02;99227.44;;;25.44;74.80
37848;BME280;23688;33.130;-117.188;2023-07-29T01:28:29;99226.44;;;25.48;74.62
37848;BME280;23688;33.130;-117.188;2023-07-29T01:31:12;99227.84;;;25.27;74.58
37848;BME280;23688;33.130;-117.188;2023-07-29T01:33:44;99222.09;;;25.05;75.96
37848;BME280;23688;33.130;-117.188;2023-07-29T01:36:18;99212.78;;;24.86;76.70
37848;BME280;23688;33.130;-117.188;2023-07-29T01:38:48;99226.91;;;24.88;78.28
37848;BME280;23688;33.130;-117.188;2023-07-29T01:41:17;99237.72;;;24.78;78.30
37848;BME280;23688;33.130;-117.188;2023-07-29T01:43:44;99244.38;;;24.54;79.19
37848;BME280;23688;33.130;-117.188;2023-07-29T01:46:13;99239.59;;;24.27;80.81
37848;BME280;23688;33.130;-117.188;2023-07-29T01:48:40;99240.72;;;24.12;81.89
37848;BME280;23688;33.130;-117.188;2023-07-29T01:51:07;99247.97;;;24.02;83.25
37848;BME280;23688;33.130;-117.188;2023-07-29T01:53:33;99233.16;;;23.90;82.94
37848;BME280;23688;33.130;-117.188;2023-07-29T01:56:00;99240.69;;;23.59;85.37
37848;BME280;23688;33.130;-117.188;2023-07-29T01:58:27;99230.28;;;23.47;85.70
37848;BME280;23688;33.130;-117.188;2023-07-29T02:00:54;99241.06;;;23.33;86.77
37848;BME280;23688;33.130;-117.188;2023-07-29T02:03:20;99231.50;;;23.23;87.71
37848;BME280;23688;33.130;-117.188;2023-07-29T02:05:46;99240.47;;;23.14;88.17
37848;BME280;23688;33.130;-117.188;2023-07-29T02:08:13;99246.91;;;22.92;90.26
37848;BME280;23688;33.130;-117.188;2023-07-29T02:10:40;99234.78;;;22.74;90.85
37848;BME280;23688;33.130;-117.188;2023-07-29T02:13:06;99234.69;;;22.80;91.11
37848;BME280;23688;33.130;-117.188;2023-07-29T02:15:32;99235.66;;;22.74;91.00
37848;BME280;23688;33.130;-117.188;2023-07-29T02:17:59;99245.41;;;22.69;92.23
37848;BME280;23688;33.130;-117.188;2023-07-29T02:20:27;99238.44;;;22.63;91.86
37848;BME280;23688;33.130;-117.188;2023-07-29T02:22:54;99233.97;;;22.67;92.33
37848;BME280;23688;33.130;-117.188;2023-07-29T02:25:20;99248.97;;;22.67;92.79
37848;BME280;23688;33.130;-117.188;2023-07-29T02:27:46;99242.28;;;22.35;94.06
37848;BME280;23688;33.130;-117.188;2023-07-29T02:30:13;99251.22;;;22.18;95.14
37848;BME280;23688;33.130;-117.188;2023-07-29T02:32:39;99246.09;;;22.03;95.96
37848;BME280;23688;33.130;-117.188;2023-07-29T02:35:05;99251.28;;;22.12;96.08
37848;BME280;23688;33.130;-117.188;2023-07-29T02:37:32;99249.66;;;21.97;96.45
37848;BME280;23688;33.130;-117.188;2023-07-29T02:39:58;99256.72;;;21.94;96.41
37848;BME280;23688;33.130;-117.188;2023-07-29T02:42:24;99251.63;;;21.72;98.23
37848;BME280;23688;33.130;-117.188;2023-07-29T02:44:51;99257.00;;;21.63;98.62
37848;BME280;23688;33.130;-117.188;2023-07-29T02:47:17;99247.25;;;21.67;98.40
37848;BME280;23688;33.130;-117.188;2023-07-29T02:49:45;99261.41;;;21.61;98.95
37848;BME280;23688;33.130;-117.188;2023-07-29T02:52:11;99256.09;;;21.66;98.49
37848;BME280;23688;33.130;-117.188;2023-07-29T02:54:38;99260.50;;;21.64;98.18
37848;BME280;23688;33.130;-117.188;2023-07-29T02:57:04;99262.31;;;21.57;98.92
37848;BME280;23688;33.130;-117.188;2023-07-29T02:59:30;99257.06;;;21.54;98.82
37848;BME280;23688;33.130;-117.188;2023-07-29T03:01:57;99266.72;;;21.56;98.59
37848;BME280;23688;33.130;-117.188;2023-07-29T03:04:23;99252.75;;;21.28;100.00
37848;BME280;23688;33.130;-117.188;2023-07-29T03:06:50;99282.78;;;21.12;100.00
37848;BME280;23688;33.130;-117.188;2023-07-29T03:09:16;99284.56;;;21.05;100.00
37848;BME280;23688;33.130;-117.188;2023-07-29T03:11:42;99279.31;;;21.05;100.00
37848;BME280;23688;33.130;-117.188;2023-07-29T03:14:09;99276.72;;;20.88;100.00
37848;BME280;23688;33.130;-117.188;2023-07-29T03:16:35;99288.19;;;20.77;100.00
37848;BME280;23688;33.130;-117.188;2023-07-29T03:19:01;99255.69;;;20.55;100.00
37848;BME280;23688;33.130;-117.188;2023-07-29T03:21:28;99285.56;;;20.75;100.00
37848;BME280;23688;33.130;-117.188;2023-07-29T03:23:54;99282.06;;;20.73;100.00
37848;BME280;23688;33.130;-117.188;2023-07-29T03:26:21;99269.81;;;20.58;100.00
37848;BME280;23688;33.130;-117.188;2023-07-29T03:28:47;99285.59;;;20.53;100.00
37848;BME280;23688;33.130;-117.188;2023-07-29T03:31:13;99286.50;;;20.46;100.00
37848;BME280;23688;33.130;-117.188;2023-07-29T03:33:40;99294.41;;;20.33;100.00
37848;BME280;23688;33.130;-117.188;2023-07-29T03:36:06;99297.94;;;20.24;100.00
37848;BME280;23688;33.130;-117.188;2023-07-29T03:38:32;99312.88;;;20.20;100.00
37848;BME280;23688;33.130;-117.188;2023-07-29T03:41:00;99320.78;;;20.06;100.00
37848;BME280;23688;33.130;-117.188;2023-07-29T03:43:28;99316.41;;;20.07;100.00
37848;BME280;23688;33.130;-117.188;2023-07-29T03:45:55;99292.69;;;20.01;100.00
37848;BME280;23688;33.130;-117.188;2023-07-29T03:48:21;99308.47;;;20.12;100.00
37848;BME280;23688;33.130;-117.188;2023-07-29T03:50:47;99294.47;;;19.97;100.00
37848;BME280;23688;33.130;-117.188;2023-07-29T03:53:13;99322.53;;;20.14;100.00
37848;BME280;23688;33.130;-117.188;2023-07-29T03:55:40;99313.75;;;20.21;100.00
37848;BME280;23688;33.130;-117.188;2023-07-29T03:58:06;99319.91;;;20.23;100.00
37848;BME280;23688;33.130;-117.188;2023-07-29T04:00:32;99319.94;;;20.12;100.00
37848;BME280;23688;33.130;-117.188;2023-07-29T04:02:59;99321.66;;;20.21;100.00
37848;BME280;23688;33.130;-117.188;2023-07-29T04:05:25;99315.50;;;20.31;100.00
37848;BME280;23688;33.130;-117.188;2023-07-29T04:07:53;99323.41;;;20.40;100.00
37848;BME280;23688;33.130;-117.188;2023-07-29T04:10:20;99326.94;;;20.51;100.00
37848;BME280;23688;33.130;-117.188;2023-07-29T04:12:46;99343.63;;;20.63;100.00
37848;BME280;23688;33.130;-117.188;2023-07-29T04:15:12;99333.06;;;20.43;100.00
37848;BME280;23688;33.130;-117.188;2023-07-29T04:17:39;99330.44;;;20.38;100.00
37848;BME280;23688;33.130;-117.188;2023-07-29T04:20:05;99334.84;;;20.45;100.00
37848;BME280;23688;33.130;-117.188;2023-07-29T04:22:32;99326.94;;;20.30;100.00
37848;BME280;23688;33.130;-117.188;2023-07-29T04:24:59;99309.38;;;20.24;100.00
37848;BME280;23688;33.130;-117.188;2023-07-29T04:27:25;99343.66;;;20.61;100.00
37848;BME280;23688;33.130;-117.188;2023-07-29T04:29:51;99335.72;;;20.69;100.00
37848;BME280;23688;33.130;-117.188;2023-07-29T04:32:18;99341.84;;;20.83;100.00
37848;BME280;23688;33.130;-117.188;2023-07-29T04:34:44;99338.31;;;20.81;100.00
37848;BME280;23688;33.130;-117.188;2023-07-29T04:37:10;99348.81;;;20.97;100.00
37848;BME280;23688;33.130;-117.188;2023-07-29T04:39:39;99343.50;;;21.04;100.00
37848;BME280;23688;33.130;-117.188;2023-07-29T04:42:06;99343.50;;;21.13;100.00
37848;BME280;23688;33.130;-117.188;2023-07-29T04:44:32;99347.00;;;21.17;100.00
37848;BME280;23688;33.130;-117.188;2023-07-29T04:46:58;99347.88;;;21.22;100.00
37848;BME280;23688;33.130;-117.188;2023-07-29T04:49:24;99346.06;;;21.26;100.00
37848;BME280;23688;33.130;-117.188;2023-07-29T04:51:51;99358.38;;;21.34;100.00
37848;BME280;23688;33.130;-117.188;2023-07-29T04:54:17;99353.06;;;21.41;100.00
37848;BME280;23688;33.130;-117.188;2023-07-29T04:56:46;99353.97;;;21.44;100.00
37848;BME280;23688;33.130;-117.188;2023-07-29T04:59:13;99353.94;;;21.43;99.57
37848;BME280;23688;33.130;-117.188;2023-07-29T05:01:39;99363.59;;;21.48;99.41
37848;BME280;23688;33.130;-117.188;2023-07-29T05:04:05;99358.31;;;21.48;99.31
37848;BME280;23688;33.130;-117.188;2023-07-29T05:06:32;99358.31;;;21.50;99.68
37848;BME280;23688;33.130;-117.188;2023-07-29T05:08:58;99356.56;;;21.53;99.44
37848;BME280;23688;33.130;-117.188;2023-07-29T05:11:24;99360.94;;;21.56;99.32
37848;BME280;23688;33.130;-117.188;2023-07-29T05:13:51;99356.56;;;21.52;99.27
37848;BME280;23688;33.130;-117.188;2023-07-29T05:16:17;99363.59;;;21.54;99.20
37848;BME280;23688;33.130;-117.188;2023-07-29T05:18:48;99352.19;;;21.51;99.56
37848;BME280;23688;33.130;-117.188;2023-07-29T05:21:14;99349.47;;;21.55;99.09
37848;BME280;23688;33.130;-117.188;2023-07-29T05:23:42;99348.66;;;21.49;99.15
37848;BME280;23688;33.130;-117.188;2023-07-29T05:26:09;99339.00;;;21.42;99.41
37848;BME280;23688;33.130;-117.188;2023-07-29T05:28:37;99351.28;;;21.50;98.84
37848;BME280;23688;33.130;-117.188;2023-07-29T05:31:03;99349.53;;;21.45;98.83
37848;BME280;23688;33.130;-117.188;2023-07-29T05:33:29;99346.88;;;21.48;98.99
37848;BME280;23688;33.130;-117.188;2023-07-29T05:35:56;99351.28;;;21.52;99.06
37848;BME280;23688;33.130;-117.188;2023-07-29T05:38:22;99346.00;;;21.52;98.99
37848;BME280;23688;33.130;-117.188;2023-07-29T05:40:50;99353.88;;;21.55;99.10
37848;BME280;23688;33.130;-117.188;2023-07-29T05:43:18;99338.91;;;21.55;98.89
37848;BME280;23688;33.130;-117.188;2023-07-29T05:45:44;99352.13;;;21.57;98.85
37848;BME280;23688;33.130;-117.188;2023-07-29T05:48:10;99327.50;;;21.52;99.08
37848;BME280;23688;33.130;-117.188;2023-07-29T05:50:37;99331.84;;;21.64;99.09
37848;BME280;23688;33.130;-117.188;2023-07-29T05:53:03;99315.13;;;21.63;98.87
37848;BME280;23688;33.130;-117.188;2023-07-29T05:55:29;99317.72;;;21.66;98.72
37848;BME280;23688;33.130;-117.188;2023-07-29T05:57:57;99330.88;;;21.72;98.41
37848;BME280;23688;33.130;-117.188;2023-07-29T06:00:23;99336.19;;;21.75;98.30
37848;BME280;23688;33.130;-117.188;2023-07-29T06:02:50;99318.59;;;21.68;97.90
37848;BME280;23688;33.130;-117.188;2023-07-29T06:05:16;99342.28;;;21.84;97.89
37848;BME280;23688;33.130;-117.188;2023-07-29T06:07:42;99333.47;;;21.83;97.84
37848;BME280;23688;33.130;-117.188;2023-07-29T06:10:12;99314.19;;;21.70;98.01
37848;BME280;23688;33.130;-117.188;2023-07-29T06:12:39;99309.78;;;21.69;97.79
37848;BME280;23688;33.130;-117.188;2023-07-29T06:15:06;99296.59;;;21.66;97.99
37848;BME280;23688;33.130;-117.188;2023-07-29T06:17:32;99332.56;;;21.86;97.29
37848;BME280;23688;33.130;-117.188;2023-07-29T06:19:59;99333.44;;;21.86;97.17
37848;BME280;23688;33.130;-117.188;2023-07-29T06:22:25;99330.81;;;21.85;97.20
37848;BME280;23688;33.130;-117.188;2023-07-29T06:24:51;99347.50;;;21.91;96.84
37848;BME280;23688;33.130;-117.188;2023-07-29T06:27:17;99335.25;;;21.83;96.94
37848;BME280;23688;33.130;-117.188;2023-07-29T06:29:44;99346.63;;;21.91;96.75
37848;BME280;23688;33.130;-117.188;2023-07-29T06:32:10;99354.53;;;21.94;96.82
37848;BME280;23688;33.130;-117.188;2023-07-29T06:34:37;99347.50;;;21.93;96.92
37848;BME280;23688;33.130;-117.188;2023-07-29T06:37:03;99346.59;;;21.95;96.81
37848;BME280;23688;33.130;-117.188;2023-07-29T06:39:29;99351.91;;;21.91;97.05
37848;BME280;23688;33.130;-117.188;2023-07-29T06:41:55;99363.34;;;21.96;96.77
37848;BME280;23688;33.130;-117.188;2023-07-29T06:44:22;99343.09;;;21.92;96.35
37848;BME280;23688;33.130;-117.188;2023-07-29T06:46:48;99346.56;;;21.98;96.21
37848;BME280;23688;33.130;-117.188;2023-07-29T06:49:14;99340.41;;;21.96;96.24
37848;BME280;23688;33.130;-117.188;2023-07-29T06:51:41;99346.53;;;22.01;96.36
37848;BME280;23688;33.130;-117.188;2023-07-29T06:54:07;99326.31;;;21.96;96.04
37848;BME280;23688;33.130;-117.188;2023-07-29T06:56:36;99323.69;;;21.97;95.86
37848;BME280;23688;33.130;-117.188;2023-07-29T06:59:03;99334.25;;;21.96;96.00
37848;BME280;23688;33.130;-117.188;2023-07-29T07:01:29;99329.94;;;21.86;96.37
37848;BME280;23688;33.130;-117.188;2023-07-29T07:03:56;99337.81;;;21.93;96.74
37848;BME280;23688;33.130;-117.188;2023-07-29T07:06:27;99335.19;;;21.89;96.48
37848;BME280;23688;33.130;-117.188;2023-07-29T07:08:53;99335.19;;;21.90;95.69
37848;BME280;23688;33.130;-117.188;2023-07-29T07:11:19;99329.06;;;21.84;95.94
37848;BME280;23688;33.130;-117.188;2023-07-29T07:13:46;99318.50;;;21.80;96.12
37848;BME280;23688;33.130;-117.188;2023-07-29T07:16:14;99315.00;;;21.80;96.32
37848;BME280;23688;33.130;-117.188;2023-07-29T07:18:41;99311.50;;;21.73;96.51
37848;BME280;23688;33.130;-117.188;2023-07-29T07:21:08;99327.31;;;21.79;96.61
37848;BME280;23688;33.130;-117.188;2023-07-29T07:23:34;99329.06;;;21.85;96.68
37848;BME280;23688;33.130;-117.188;2023-07-29T07:26:00;99329.09;;;21.80;96.50
37848;BME280;23688;33.130;-117.188;2023-07-29T07:28:26;99321.13;;;21.84;96.26
37848;BME280;23688;33.130;-117.188;2023-07-29T07:30:54;99323.78;;;21.85;96.11
37848;BME280;23688;33.130;-117.188;2023-07-29T07:33:22;99317.69;;;21.75;96.74
37848;BME280;23688;33.130;-117.188;2023-07-29T07:35:48;99327.34;;;21.78;96.79
37848;BME280;23688;33.130;-117.188;2023-07-29T07:38:14;99329.09;;;21.77;97.41
37848;BME280;23688;33.130;-117.188;2023-07-29T07:40:41;99310.66;;;21.71;96.84
37848;BME280;23688;33.130;-117.188;2023-07-29T07:43:09;99314.16;;;21.72;96.83
37848;BME280;23688;33.130;-117.188;2023-07-29T07:45:35;99323.88;;;21.68;96.43
37848;BME280;23688;33.130;-117.188;2023-07-29T07:48:02;99313.31;;;21.68;96.44
37848;BME280;23688;33.130;-117.188;2023-07-29T07:50:31;99318.59;;;21.67;97.07
37848;BME280;23688;33.130;-117.188;2023-07-29T07:52:58;99313.38;;;21.59;96.64
37848;BME280;23688;33.130;-117.188;2023-07-29T07:55:24;99321.31;;;21.53;97.48
37848;BME280;23688;33.130;-117.188;2023-07-29T07:57:50;99314.31;;;21.47;97.73
37848;BME280;23688;33.130;-117.188;2023-07-29T08:00:17;99321.41;;;21.33;98.68
37848;BME280;23688;33.130;-117.188;2023-07-29T08:02:44;99307.31;;;21.31;99.81
37848;BME280;23688;33.130;-117.188;2023-07-29T08:05:11;99322.22;;;21.46;99.27
37848;BME280;23688;33.130;-117.188;2023-07-29T08:07:37;99297.63;;;21.41;99.08
37848;BME280;23688;33.130;-117.188;2023-07-29T08:10:04;99302.91;;;21.41;99.06
37848;BME280;23688;33.130;-117.188;2023-07-29T08:12:30;99318.75;;;21.41;99.29
37848;BME280;23688;33.130;-117.188;2023-07-29T08:14:56;99301.16;;;21.30;99.67
37848;BME280;23688;33.130;-117.188;2023-07-29T08:17:23;99297.66;;;21.28;100.00
37848;BME280;23688;33.130;-117.188;2023-07-29T08:19:49;99306.44;;;21.30;100.00
37848;BME280;23688;33.130;-117.188;2023-07-29T08:22:15;99314.44;;;21.16;100.00
37848;BME280;23688;33.130;-117.188;2023-07-29T08:24:43;99305.66;;;21.13;100.00
37848;BME280;23688;33.130;-117.188;2023-07-29T08:27:09;99306.59;;;21.03;100.00
37848;BME280;23688;33.130;-117.188;2023-07-29T08:29:35;99316.19;;;21.16;100.00
37848;BME280;23688;33.130;-117.188;2023-07-29T08:32:02;99320.59;;;21.15;100.00
37848;BME280;23688;33.130;-117.188;2023-07-29T08:34:29;99300.38;;;21.13;100.00
37848;BME280;23688;33.130;-117.188;2023-07-29T08:36:55;99306.47;;;21.21;100.00
37848;BME280;23688;33.130;-117.188;2023-07-29T08:39:21;99302.97;;;21.21;100.00
37848;BME280;23688;33.130;-117.188;2023-07-29T08:42:01;99306.53;;;21.13;100.00
37848;BME280;23688;33.130;-117.188;2023-07-29T08:44:36;99301.31;;;21.00;100.00
37848;BME280;23688;33.130;-117.188;2023-07-29T08:47:05;99309.22;;;21.06;100.00
37848;BME280;23688;33.130;-117.188;2023-07-29T08:49:32;99288.09;;;21.03;100.00
37848;BME280;23688;33.130;-117.188;2023-07-29T08:51:59;99295.97;;;21.15;100.00
37848;BME280;23688;33.130;-117.188;2023-07-29T08:54:27;99303.84;;;21.21;100.00
37848;BME280;23688;33.130;-117.188;2023-07-29T08:56:53;99299.47;;;21.20;100.00
37848;BME280;23688;33.130;-117.188;2023-07-29T08:59:20;99293.31;;;21.18;100.00
37848;BME280;23688;33.130;-117.188;2023-07-29T09:01:47;99305.59;;;21.25;100.00
37848;BME280;23688;33.130;-117.188;2023-07-29T09:04:14;99295.91;;;21.27;100.00
37848;BME280;23688;33.130;-117.188;2023-07-29T09:06:43;99299.41;;;21.26;100.00
37848;BME280;23688;33.130;-117.188;2023-07-29T09:09:09;99286.25;;;21.25;100.00
37848;BME280;23688;33.130;-117.188;2023-07-29T09:11:35;99289.75;;;21.25;100.00
37848;BME280;23688;33.130;-117.188;2023-07-29T09:14:02;99284.47;;;21.27;100.00
37848;BME280;23688;33.130;-117.188;2023-07-29T09:16:29;99282.72;;;21.21;100.00
37848;BME280;23688;33.130;-117.188;2023-07-29T09:18:55;99296.78;;;21.28;100.00
37848;BME280;23688;33.130;-117.188;2023-07-29T09:21:24;99295.97;;;21.20;100.00
37848;BME280;23688;33.130;-117.188;2023-07-29T09:23:52;99288.94;;;21.12;100.00
37848;BME280;23688;33.130;-117.188;2023-07-29T09:26:23;99296.84;;;21.15;100.00
37848;BME280;23688;33.130;-117.188;2023-07-29T09:28:54;99293.34;;;21.15;100.00
37848;BME280;23688;33.130;-117.188;2023-07-29T09:31:22;99292.44;;;21.17;100.00
37848;BME280;23688;33.130;-117.188;2023-07-29T09:33:49;99288.91;;;21.14;100.00
37848;BME280;23688;33.130;-117.188;2023-07-29T09:36:15;99299.47;;;21.19;100.00
37848;BME280;23688;33.130;-117.188;2023-07-29T09:38:44;99300.34;;;21.21;100.00
37848;BME280;23688;33.130;-117.188;2023-07-29T09:41:15;99288.03;;;21.18;100.00
37848;BME280;23688;33.130;-117.188;2023-07-29T09:43:41;99322.28;;;21.32;100.00
37848;BME280;23688;33.130;-117.188;2023-07-29T09:46:07;99321.44;;;21.25;100.00
37848;BME280;23688;33.130;-117.188;2023-07-29T09:48:35;99326.72;;;21.25;100.00
37848;BME280;23688;33.130;-117.188;2023-07-29T09:51:14;99323.25;;;21.17;100.00
37848;BME280;23688;33.130;-117.188;2023-07-29T09:53:45;99324.13;;;21.13;100.00
37848;BME280;23688;33.130;-117.188;2023-07-29T09:56:13;99324.16;;;21.10;100.00
37848;BME280;23688;33.130;-117.188;2023-07-29T09:58:39;99302.22;;;20.92;100.00
37848;BME280;23688;33.130;-117.188;2023-07-29T10:01:09;99321.69;;;20.56;100.00
37848;BME280;23688;33.130;-117.188;2023-07-29T10:03:36;99320.78;;;20.19;100.00
37848;BME280;23688;33.130;-117.188;2023-07-29T10:06:06;99328.69;;;20.06;100.00
37848;BME280;23688;33.130;-117.188;2023-07-29T10:08:33;99308.50;;;19.96;100.00
37848;BME280;23688;33.130;-117.188;2023-07-29T10:11:06;99327.81;;;19.89;100.00
37848;BME280;23688;33.130;-117.188;2023-07-29T10:13:34;99312.88;;;19.86;100.00
37848;BME280;23688;33.130;-117.188;2023-07-29T10:16:01;99310.25;;;20.02;100.00
37848;BME280;23688;33.130;-117.188;2023-07-29T10:18:29;99326.94;;;20.38;100.00
37848;BME280;23688;33.130;-117.188;2023-07-29T10:20:57;99331.31;;;20.49;100.00
37848;BME280;23688;33.130;-117.188;2023-07-29T10:23:32;99315.50;;;20.49;100.00
37848;BME280;23688;33.130;-117.188;2023-07-29T10:26:10;99333.06;;;20.69;100.00
37848;BME280;23688;33.130;-117.188;2023-07-29T10:28:41;99321.66;;;20.67;100.00
37848;BME280;23688;33.130;-117.188;2023-07-29T10:31:10;99328.66;;;20.79;100.00
37848;BME280;23688;33.130;-117.188;2023-07-29T10:33:37;99309.34;;;20.63;100.00
37848;BME280;23688;33.130;-117.188;2023-07-29T10:36:05;99327.81;;;20.60;100.00
37848;BME280;23688;33.130;-117.188;2023-07-29T10:38:31;99326.94;;;20.61;100.00
37848;BME280;23688;33.130;-117.188;2023-07-29T10:40:59;99336.56;;;20.77;100.00
37848;BME280;23688;33.130;-117.188;2023-07-29T10:43:34;99326.91;;;20.81;100.00
37848;BME280;23688;33.130;-117.188;2023-07-29T10:46:18;99333.91;;;20.91;100.00
37848;BME280;23688;33.130;-117.188;2023-07-29T10:48:55;99326.84;;;20.91;100.00
37848;BME280;23688;33.130;-117.188;2023-07-29T10:51:30;99297.88;;;20.78;100.00
37848;BME280;23688;33.130;-117.188;2023-07-29T10:54:11;99318.94;;;20.91;100.00
37848;BME280;23688;33.130;-117.188;2023-07-29T10:56:46;99310.16;;;20.92;100.00
37848;BME280;23688;33.130;-117.188;2023-07-29T11:01:59;99313.66;;;20.98;100.00
37848;BME280;23688;33.130;-117.188;2023-07-29T11:04:28;99300.50;;;20.90;100.00
37848;BME280;23688;33.130;-117.188;2023-07-29T11:09:51;99306.59;;;20.98;100.00
37848;BME280;23688;33.130;-117.188;2023-07-29T11:20:21;99324.16;;;21.10;100.00
37848;BME280;23688;33.130;-117.188;2023-07-29T11:22:48;99313.59;;;21.10;100.00
37848;BME280;23688;33.130;-117.188;2023-07-29T11:25:16;99313.56;;;21.13;100.00
37848;BME280;23688;33.130;-117.188;2023-07-29T11:27:45;99306.56;;;21.10;100.00
37848;BME280;23688;33.130;-117.188;2023-07-29T11:30:13;99288.09;;;21.01;100.00
37848;BME280;23688;33.130;-117.188;2023-07-29T11:32:42;99304.78;;;21.12;100.00
37848;BME280;23688;33.130;-117.188;2023-07-29T11:35:15;99300.41;;;21.10;100.00
37848;BME280;23688;33.130;-117.188;2023-07-29T11:37:44;99308.28;;;21.11;100.00
37848;BME280;23688;33.130;-117.188;2023-07-29T11:40:14;99310.09;;;21.08;100.00
37848;BME280;23688;33.130;-117.188;2023-07-29T11:42:41;99306.56;;;21.06;100.00
37848;BME280;23688;33.130;-117.188;2023-07-29T11:45:08;99296.06;;;21.00;100.00
37848;BME280;23688;33.130;-117.188;2023-07-29T11:47:35;99296.88;;;21.06;100.00
37848;BME280;23688;33.130;-117.188;2023-07-29T11:50:07;99291.63;;;21.03;100.00
37848;BME280;23688;33.130;-117.188;2023-07-29T11:52:37;99293.38;;;21.01;100.00
37848;BME280;23688;33.130;-117.188;2023-07-29T11:55:06;99302.19;;;21.03;100.00
37848;BME280;23688;33.130;-117.188;2023-07-29T11:57:37;99299.56;;;20.99;100.00
37848;BME280;23688;33.130;-117.188;2023-07-29T12:00:05;99303.97;;;20.95;100.00
37848;BME280;23688;33.130;-117.188;2023-07-29T12:02:33;99291.72;;;20.77;100.00
37848;BME280;23688;33.130;-117.188;2023-07-29T12:05:03;99306.63;;;20.89;100.00
37848;BME280;23688;33.130;-117.188;2023-07-29T12:07:31;99312.78;;;20.86;100.00
37848;BME280;23688;33.130;-117.188;2023-07-29T12:09:59;99318.03;;;20.95;100.00
37848;BME280;23688;33.130;-117.188;2023-07-29T12:12:25;99317.16;;;20.97;100.00
37848;BME280;23688;33.130;-117.188;2023-07-29T12:14:54;99316.31;;;20.93;100.00
37848;BME280;23688;33.130;-117.188;2023-07-29T12:17:21;99322.44;;;21.00;100.00
37848;BME280;23688;33.130;-117.188;2023-07-29T12:19:47;99312.75;;;20.99;100.00
37848;BME280;23688;33.130;-117.188;2023-07-29T12:22:18;99320.69;;;20.97;100.00
37848;BME280;23688;33.130;-117.188;2023-07-29T12:24:45;99333.03;;;20.90;100.00
37848;BME280;23688;33.130;-117.188;2023-07-29T12:27:13;99326.91;;;20.65;100.00
37848;BME280;23688;33.130;-117.188;2023-07-29T12:29:42;99326.06;;;20.42;100.00
37848;BME280;23688;33.130;-117.188;2023-07-29T12:32:09;99346.25;;;20.38;100.00
37848;BME280;23688;33.130;-117.188;2023-07-29T12:34:37;99346.28;;;20.29;100.00
37848;BME280;23688;33.130;-117.188;2023-07-29T12:37:06;99348.03;;;19.96;100.00
37848;BME280;23688;33.130;-117.188;2023-07-29T12:39:39;99341.84;;;19.76;100.00
37848;BME280;23688;33.130;-117.188;2023-07-29T12:42:06;99351.53;;;19.83;100.00
37848;BME280;23688;33.130;-117.188;2023-07-29T12:44:34;99357.69;;;19.91;100.00